Dexter, MO (63841)

3:02 PM CDT on August 25, 2016 (GMT -0500)
3 miles East of Dudley Mo. | | Change Station

Elev 384 ft 36.78 °N, 90.04 °W | Updated 5 days ago

Partly Cloudy
Partly Cloudy
92 °F
Feels Like 100 °F
N
6
Wind Variable Wind from SW
Gusts mph

Today
High -- | Low -- °F
--% Chance of Precip.
Yesterday
High -- | Low -- °F
Precip. -- in
Pressure 30.04 in
Visibility 10.0 miles
Clouds Few 4900 ft
Heat Index 100 °F
Dew Point 73 °F
Humidity 55%
Rainfall in
Snow Depth Not available.
6:25 AM 7:37 PM
Last Quarter, 42% visible
METAR KPOF 251953Z AUTO VRB03KT 10SM FEW049 33/22 A3006 RMK AO2 SLP172 T03280217 TSNO
Pressure 30.04 in
Visibility 10.0 miles
Clouds Few 4900 ft
Heat Index 100 °F
Dew Point 73 °F
Humidity 55%
Rainfall in
Snow Depth Not available.
6:25 AM 7:37 PM
Last Quarter, 42% visible
METAR KPOF 251953Z AUTO VRB03KT 10SM FEW049 33/22 A3006 RMK AO2 SLP172 T03280217 TSNO
A tropical disturbance pushing toward the Bahamas, is expected to develop into a tropical depression or storm, and will likely target Florida and the Gulf Coast this weekend into next week.

Right now, the disturbance remains a broad area of low pressure pushing through the Dominican Republic and Haiti, headed toward the southeast Bahamas. Rainfall totals over 3 inches (with locally higher amounts) are expected in HispaƱiola, particularly over elevated terrain.

10-Day Weather Forecast

Almanac

Astronomy

Aug. 25, 2016 Rise Set
Actual Time
Civil Twilight
Nautical Twilight
Astronomical Twilight
Moon
Length of Visible Light
Length of Day
Tomorrow will be .
, % of the Moon is Illuminated

Today's Extremes

State Highs State Lows

Community

WunderPhotos

Upload Photos

1,934,921 photos uploaded!

WunderBlog® & News

Nearby

Air Quality

  Air Quality AQ Index Pollutant
Not available.

Snow Depth

Station Depth Elevation

Earthquake Activity

City Distance Mag. Time & Date
Minimum magnitude displayed is 2.5.

Coastal Water Temperatures

Place Temperature

Stations

Nearby Weather Stations

Station Location Temp. Windchill Dew Point Humidity Wind Precip. Elev Updated Type
                   

Watches & Warnings

There are currently no watches in effect.